sensor_id;sensor_type;location;lat;lon;timestamp;P1;durP1;ratioP1;P2;durP2;ratioP2
25057;SDS011;13057;50.978;11.034;2022-12-11T00:01:54;27.30;;;16.92;;
25057;SDS011;13057;50.978;11.034;2022-12-11T00:04:20;30.17;;;17.30;;
25057;SDS011;13057;50.978;11.034;2022-12-11T00:06:48;28.33;;;16.70;;
25057;SDS011;13057;50.978;11.034;2022-12-11T00:09:15;26.20;;;16.73;;
25057;SDS011;13057;50.978;11.034;2022-12-11T00:11:42;22.88;;;14.70;;
25057;SDS011;13057;50.978;11.034;2022-12-11T00:14:08;24.80;;;15.40;;
25057;SDS011;13057;50.978;11.034;2022-12-11T00:16:33;28.38;;;16.83;;
25057;SDS011;13057;50.978;11.034;2022-12-11T00:18:59;24.95;;;15.10;;
25057;SDS011;13057;50.978;11.034;2022-12-11T00:21:25;26.27;;;15.77;;
25057;SDS011;13057;50.978;11.034;2022-12-11T00:23:51;25.08;;;14.93;;
25057;SDS011;13057;50.978;11.034;2022-12-11T00:26:17;31.27;;;19.00;;
25057;SDS011;13057;50.978;11.034;2022-12-11T00:28:43;24.55;;;15.18;;
25057;SDS011;13057;50.978;11.034;2022-12-11T00:31:12;26.23;;;15.68;;
25057;SDS011;13057;50.978;11.034;2022-12-11T00:33:40;24.42;;;15.10;;
25057;SDS011;13057;50.978;11.034;2022-12-11T00:36:11;24.20;;;14.45;;
25057;SDS011;13057;50.978;11.034;2022-12-11T00:38:38;23.13;;;14.45;;
25057;SDS011;13057;50.978;11.034;2022-12-11T00:41:04;21.65;;;14.15;;
25057;SDS011;13057;50.978;11.034;2022-12-11T00:43:30;22.33;;;13.98;;
25057;SDS011;13057;50.978;11.034;2022-12-11T00:45:56;23.98;;;14.75;;
25057;SDS011;13057;50.978;11.034;2022-12-11T00:48:23;24.10;;;14.68;;
25057;SDS011;13057;50.978;11.034;2022-12-11T00:50:48;21.85;;;13.38;;
25057;SDS011;13057;50.978;11.034;2022-12-11T00:53:14;21.52;;;13.95;;
25057;SDS011;13057;50.978;11.034;2022-12-11T00:55:40;22.17;;;13.60;;
25057;SDS011;13057;50.978;11.034;2022-12-11T00:58:07;19.85;;;13.40;;
25057;SDS011;13057;50.978;11.034;2022-12-11T01:00:34;20.90;;;13.35;;
25057;SDS011;13057;50.978;11.034;2022-12-11T01:03:00;21.25;;;13.35;;
25057;SDS011;13057;50.978;11.034;2022-12-11T01:05:26;21.20;;;13.02;;
25057;SDS011;13057;50.978;11.034;2022-12-11T01:07:52;25.98;;;14.48;;
25057;SDS011;13057;50.978;11.034;2022-12-11T01:10:18;22.50;;;13.93;;
25057;SDS011;13057;50.978;11.034;2022-12-11T01:12:50;21.42;;;13.65;;
25057;SDS011;13057;50.978;11.034;2022-12-11T01:15:25;21.83;;;13.57;;
25057;SDS011;13057;50.978;11.034;2022-12-11T01:17:53;22.75;;;14.10;;
25057;SDS011;13057;50.978;11.034;2022-12-11T01:20:20;21.25;;;13.55;;
25057;SDS011;13057;50.978;11.034;2022-12-11T01:22:46;22.88;;;13.68;;
25057;SDS011;13057;50.978;11.034;2022-12-11T01:25:12;21.50;;;13.40;;
25057;SDS011;13057;50.978;11.034;2022-12-11T01:27:39;22.15;;;14.02;;
25057;SDS011;13057;50.978;11.034;2022-12-11T01:30:05;20.40;;;13.88;;
25057;SDS011;13057;50.978;11.034;2022-12-11T01:32:33;25.20;;;15.25;;
25057;SDS011;13057;50.978;11.034;2022-12-11T01:35:01;22.52;;;14.68;;
25057;SDS011;13057;50.978;11.034;2022-12-11T01:37:29;25.23;;;15.57;;
25057;SDS011;13057;50.978;11.034;2022-12-11T01:39:55;23.90;;;15.35;;
25057;SDS011;13057;50.978;11.034;2022-12-11T01:42:20;23.92;;;15.20;;
25057;SDS011;13057;50.978;11.034;2022-12-11T01:50:04;23.55;;;15.27;;
25057;SDS011;13057;50.978;11.034;2022-12-11T01:52:30;23.35;;;14.68;;
25057;SDS011;13057;50.978;11.034;2022-12-11T01:54:57;24.20;;;15.05;;
25057;SDS011;13057;50.978;11.034;2022-12-11T01:57:22;26.17;;;15.60;;
25057;SDS011;13057;50.978;11.034;2022-12-11T01:59:48;24.15;;;14.80;;
25057;SDS011;13057;50.978;11.034;2022-12-11T02:02:21;23.17;;;14.75;;
25057;SDS011;13057;50.978;11.034;2022-12-11T02:04:51;26.00;;;15.50;;
25057;SDS011;13057;50.978;11.034;2022-12-11T02:07:21;22.40;;;14.63;;
25057;SDS011;13057;50.978;11.034;2022-12-11T02:09:47;22.73;;;14.38;;
25057;SDS011;13057;50.978;11.034;2022-12-11T02:15:08;24.65;;;15.40;;
25057;SDS011;13057;50.978;11.034;2022-12-11T02:17:52;23.05;;;14.60;;
25057;SDS011;13057;50.978;11.034;2022-12-11T02:20:33;22.80;;;14.68;;
25057;SDS011;13057;50.978;11.034;2022-12-11T02:31:23;23.92;;;16.02;;
25057;SDS011;13057;50.978;11.034;2022-12-11T02:34:02;24.83;;;16.00;;
25057;SDS011;13057;50.978;11.034;2022-12-11T02:36:40;26.08;;;16.25;;
25057;SDS011;13057;50.978;11.034;2022-12-11T02:39:09;29.70;;;15.95;;
25057;SDS011;13057;50.978;11.034;2022-12-11T02:41:39;24.70;;;15.82;;
25057;SDS011;13057;50.978;11.034;2022-12-11T02:44:10;24.58;;;16.33;;
25057;SDS011;13057;50.978;11.034;2022-12-11T02:46:38;24.63;;;15.77;;
25057;SDS011;13057;50.978;11.034;2022-12-11T02:49:05;23.80;;;15.93;;
25057;SDS011;13057;50.978;11.034;2022-12-11T02:51:33;24.75;;;16.45;;
25057;SDS011;13057;50.978;11.034;2022-12-11T02:54:02;26.70;;;16.58;;
25057;SDS011;13057;50.978;11.034;2022-12-11T02:56:34;30.85;;;17.08;;
25057;SDS011;13057;50.978;11.034;2022-12-11T02:59:06;25.08;;;15.63;;
25057;SDS011;13057;50.978;11.034;2022-12-11T03:04:03;29.25;;;15.45;;
25057;SDS011;13057;50.978;11.034;2022-12-11T03:06:31;25.08;;;16.40;;
25057;SDS011;13057;50.978;11.034;2022-12-11T03:09:02;24.42;;;15.50;;
25057;SDS011;13057;50.978;11.034;2022-12-11T03:11:29;25.67;;;16.55;;
25057;SDS011;13057;50.978;11.034;2022-12-11T03:13:55;23.92;;;15.85;;
25057;SDS011;13057;50.978;11.034;2022-12-11T03:16:28;26.83;;;16.65;;
25057;SDS011;13057;50.978;11.034;2022-12-11T03:19:09;25.55;;;16.50;;
25057;SDS011;13057;50.978;11.034;2022-12-11T03:21:45;24.63;;;15.85;;
25057;SDS011;13057;50.978;11.034;2022-12-11T03:24:20;27.10;;;16.42;;
25057;SDS011;13057;50.978;11.034;2022-12-11T03:26:59;24.98;;;15.98;;
25057;SDS011;13057;50.978;11.034;2022-12-11T03:29:32;26.10;;;16.00;;
25057;SDS011;13057;50.978;11.034;2022-12-11T03:32:04;25.45;;;16.23;;
25057;SDS011;13057;50.978;11.034;2022-12-11T03:34:40;25.60;;;16.33;;
25057;SDS011;13057;50.978;11.034;2022-12-11T03:37:11;26.13;;;16.80;;
25057;SDS011;13057;50.978;11.034;2022-12-11T03:39:40;25.58;;;16.25;;
25057;SDS011;13057;50.978;11.034;2022-12-11T03:42:10;26.38;;;16.35;;
25057;SDS011;13057;50.978;11.034;2022-12-11T03:44:38;25.05;;;16.35;;
25057;SDS011;13057;50.978;11.034;2022-12-11T03:47:07;26.85;;;16.70;;
25057;SDS011;13057;50.978;11.034;2022-12-11T03:49:34;25.20;;;15.77;;
25057;SDS011;13057;50.978;11.034;2022-12-11T03:52:04;26.38;;;16.17;;
25057;SDS011;13057;50.978;11.034;2022-12-11T03:54:31;26.88;;;16.65;;
25057;SDS011;13057;50.978;11.034;2022-12-11T03:56:59;24.90;;;16.02;;
25057;SDS011;13057;50.978;11.034;2022-12-11T03:59:28;25.25;;;15.68;;
25057;SDS011;13057;50.978;11.034;2022-12-11T04:01:53;24.88;;;16.08;;
25057;SDS011;13057;50.978;11.034;2022-12-11T04:04:20;23.27;;;14.82;;
25057;SDS011;13057;50.978;11.034;2022-12-11T04:06:45;25.80;;;15.77;;
25057;SDS011;13057;50.978;11.034;2022-12-11T04:09:11;25.42;;;14.88;;
25057;SDS011;13057;50.978;11.034;2022-12-11T04:11:37;24.35;;;15.52;;
25057;SDS011;13057;50.978;11.034;2022-12-11T04:14:05;24.83;;;15.52;;
25057;SDS011;13057;50.978;11.034;2022-12-11T04:16:44;24.10;;;16.10;;
25057;SDS011;13057;50.978;11.034;2022-12-11T04:19:10;23.85;;;15.48;;
25057;SDS011;13057;50.978;11.034;2022-12-11T04:21:48;23.23;;;15.40;;
25057;SDS011;13057;50.978;11.034;2022-12-11T04:24:26;27.13;;;16.27;;
25057;SDS011;13057;50.978;11.034;2022-12-11T04:26:52;25.52;;;16.33;;
25057;SDS011;13057;50.978;11.034;2022-12-11T04:29:18;28.58;;;16.92;;
25057;SDS011;13057;50.978;11.034;2022-12-11T04:31:44;27.23;;;16.65;;
25057;SDS011;13057;50.978;11.034;2022-12-11T04:34:10;24.38;;;15.55;;
25057;SDS011;13057;50.978;11.034;2022-12-11T04:36:36;29.80;;;17.25;;
25057;SDS011;13057;50.978;11.034;2022-12-11T04:39:03;27.73;;;16.95;;
25057;SDS011;13057;50.978;11.034;2022-12-11T04:41:29;27.10;;;16.88;;
25057;SDS011;13057;50.978;11.034;2022-12-11T04:43:55;25.10;;;16.23;;
25057;SDS011;13057;50.978;11.034;2022-12-11T04:46:22;29.95;;;16.85;;
25057;SDS011;13057;50.978;11.034;2022-12-11T04:48:49;26.88;;;16.00;;
25057;SDS011;13057;50.978;11.034;2022-12-11T04:51:16;26.10;;;16.60;;
25057;SDS011;13057;50.978;11.034;2022-12-11T04:53:43;26.85;;;16.20;;
25057;SDS011;13057;50.978;11.034;2022-12-11T04:56:10;25.95;;;16.17;;
25057;SDS011;13057;50.978;11.034;2022-12-11T04:58:38;27.35;;;16.58;;
25057;SDS011;13057;50.978;11.034;2022-12-11T05:01:06;24.73;;;15.48;;
25057;SDS011;13057;50.978;11.034;2022-12-11T05:03:33;26.42;;;16.15;;
25057;SDS011;13057;50.978;11.034;2022-12-11T05:05:59;26.05;;;16.33;;
25057;SDS011;13057;50.978;11.034;2022-12-11T05:08:25;23.95;;;15.63;;
25057;SDS011;13057;50.978;11.034;2022-12-11T05:10:55;25.75;;;16.10;;
25057;SDS011;13057;50.978;11.034;2022-12-11T05:13:22;28.02;;;16.67;;
25057;SDS011;13057;50.978;11.034;2022-12-11T05:15:48;27.67;;;17.27;;
25057;SDS011;13057;50.978;11.034;2022-12-11T05:18:14;24.20;;;16.35;;
25057;SDS011;13057;50.978;11.034;2022-12-11T05:20:39;24.38;;;16.20;;
25057;SDS011;13057;50.978;11.034;2022-12-11T05:23:06;24.02;;;15.77;;
25057;SDS011;13057;50.978;11.034;2022-12-11T05:25:31;25.90;;;16.17;;
25057;SDS011;13057;50.978;11.034;2022-12-11T05:27:57;24.63;;;16.52;;
25057;SDS011;13057;50.978;11.034;2022-12-11T05:30:23;25.20;;;16.17;;
25057;SDS011;13057;50.978;11.034;2022-12-11T05:32:49;28.42;;;17.00;;
25057;SDS011;13057;50.978;11.034;2022-12-11T05:35:15;28.40;;;17.50;;
25057;SDS011;13057;50.978;11.034;2022-12-11T05:37:41;30.25;;;17.42;;
25057;SDS011;13057;50.978;11.034;2022-12-11T05:40:07;26.75;;;16.02;;
25057;SDS011;13057;50.978;11.034;2022-12-11T05:42:34;26.38;;;17.13;;
25057;SDS011;13057;50.978;11.034;2022-12-11T05:44:59;24.38;;;16.08;;
25057;SDS011;13057;50.978;11.034;2022-12-11T05:47:25;29.50;;;16.83;;
25057;SDS011;13057;50.978;11.034;2022-12-11T05:49:51;29.52;;;17.73;;
25057;SDS011;13057;50.978;11.034;2022-12-11T05:52:17;27.33;;;16.55;;
25057;SDS011;13057;50.978;11.034;2022-12-11T05:54:43;26.77;;;17.15;;
25057;SDS011;13057;50.978;11.034;2022-12-11T05:57:09;27.48;;;17.42;;
25057;SDS011;13057;50.978;11.034;2022-12-11T05:59:34;28.20;;;18.08;;
25057;SDS011;13057;50.978;11.034;2022-12-11T06:02:00;28.42;;;17.60;;
25057;SDS011;13057;50.978;11.034;2022-12-11T06:04:26;26.40;;;17.27;;
25057;SDS011;13057;50.978;11.034;2022-12-11T06:06:53;27.05;;;17.25;;
25057;SDS011;13057;50.978;11.034;2022-12-11T06:09:19;27.38;;;16.45;;
25057;SDS011;13057;50.978;11.034;2022-12-11T06:11:45;27.83;;;16.92;;
25057;SDS011;13057;50.978;11.034;2022-12-11T06:14:11;24.48;;;15.70;;
25057;SDS011;13057;50.978;11.034;2022-12-11T06:16:37;29.00;;;17.70;;
25057;SDS011;13057;50.978;11.034;2022-12-11T06:19:03;30.02;;;17.52;;
25057;SDS011;13057;50.978;11.034;2022-12-11T06:21:31;29.95;;;17.42;;
25057;SDS011;13057;50.978;11.034;2022-12-11T06:23:59;39.67;;;22.77;;
25057;SDS011;13057;50.978;11.034;2022-12-11T06:26:26;27.00;;;16.48;;
25057;SDS011;13057;50.978;11.034;2022-12-11T06:28:53;27.85;;;17.27;;
25057;SDS011;13057;50.978;11.034;2022-12-11T06:31:19;30.10;;;17.55;;
25057;SDS011;13057;50.978;11.034;2022-12-11T06:33:46;25.83;;;16.75;;
25057;SDS011;13057;50.978;11.034;2022-12-11T06:36:12;29.75;;;16.98;;
25057;SDS011;13057;50.978;11.034;2022-12-11T06:38:40;30.38;;;18.30;;
25057;SDS011;13057;50.978;11.034;2022-12-11T06:41:06;30.75;;;17.70;;
25057;SDS011;13057;50.978;11.034;2022-12-11T06:43:34;28.60;;;17.77;;
25057;SDS011;13057;50.978;11.034;2022-12-11T06:46:04;26.50;;;16.63;;
25057;SDS011;13057;50.978;11.034;2022-12-11T06:48:31;26.38;;;16.83;;
25057;SDS011;13057;50.978;11.034;2022-12-11T06:50:58;27.27;;;17.02;;
25057;SDS011;13057;50.978;11.034;2022-12-11T06:53:24;26.60;;;17.02;;
25057;SDS011;13057;50.978;11.034;2022-12-11T06:55:50;26.38;;;16.95;;
25057;SDS011;13057;50.978;11.034;2022-12-11T06:58:16;28.42;;;17.70;;
25057;SDS011;13057;50.978;11.034;2022-12-11T07:00:42;26.83;;;17.02;;
25057;SDS011;13057;50.978;11.034;2022-12-11T07:03:08;26.58;;;17.02;;
25057;SDS011;13057;50.978;11.034;2022-12-11T07:05:34;28.50;;;17.55;;
25057;SDS011;13057;50.978;11.034;2022-12-11T07:08:00;27.75;;;17.50;;
25057;SDS011;13057;50.978;11.034;2022-12-11T07:10:26;24.65;;;16.77;;
25057;SDS011;13057;50.978;11.034;2022-12-11T07:12:52;27.55;;;17.45;;
25057;SDS011;13057;50.978;11.034;2022-12-11T07:15:18;25.98;;;16.48;;
25057;SDS011;13057;50.978;11.034;2022-12-11T07:17:44;29.48;;;17.17;;
25057;SDS011;13057;50.978;11.034;2022-12-11T07:20:10;29.15;;;17.30;;
25057;SDS011;13057;50.978;11.034;2022-12-11T07:22:36;23.95;;;16.35;;
25057;SDS011;13057;50.978;11.034;2022-12-11T07:25:02;28.25;;;17.02;;
25057;SDS011;13057;50.978;11.034;2022-12-11T07:27:28;27.45;;;17.60;;
25057;SDS011;13057;50.978;11.034;2022-12-11T07:29:54;27.92;;;16.70;;
25057;SDS011;13057;50.978;11.034;2022-12-11T07:32:20;27.88;;;17.58;;
25057;SDS011;13057;50.978;11.034;2022-12-11T07:34:47;26.10;;;16.10;;
25057;SDS011;13057;50.978;11.034;2022-12-11T07:37:13;26.45;;;16.88;;
25057;SDS011;13057;50.978;11.034;2022-12-11T07:39:39;26.85;;;16.38;;
25057;SDS011;13057;50.978;11.034;2022-12-11T07:42:05;30.95;;;18.35;;
25057;SDS011;13057;50.978;11.034;2022-12-11T07:44:31;29.73;;;17.77;;
25057;SDS011;13057;50.978;11.034;2022-12-11T07:46:57;30.30;;;18.10;;
25057;SDS011;13057;50.978;11.034;2022-12-11T07:49:26;32.33;;;19.15;;
25057;SDS011;13057;50.978;11.034;2022-12-11T07:51:52;31.77;;;18.85;;
25057;SDS011;13057;50.978;11.034;2022-12-11T07:54:18;33.58;;;18.95;;
25057;SDS011;13057;50.978;11.034;2022-12-11T07:56:45;29.13;;;17.02;;
25057;SDS011;13057;50.978;11.034;2022-12-11T07:59:12;31.00;;;17.90;;
25057;SDS011;13057;50.978;11.034;2022-12-11T08:01:38;30.30;;;17.63;;
25057;SDS011;13057;50.978;11.034;2022-12-11T08:04:07;28.35;;;17.08;;
25057;SDS011;13057;50.978;11.034;2022-12-11T08:06:35;27.98;;;16.65;;
25057;SDS011;13057;50.978;11.034;2022-12-11T08:09:04;31.73;;;17.58;;
25057;SDS011;13057;50.978;11.034;2022-12-11T08:11:32;29.75;;;16.33;;
25057;SDS011;13057;50.978;11.034;2022-12-11T08:13:58;26.90;;;16.70;;
25057;SDS011;13057;50.978;11.034;2022-12-11T08:16:25;28.52;;;17.27;;
25057;SDS011;13057;50.978;11.034;2022-12-11T08:18:51;29.95;;;17.60;;
25057;SDS011;13057;50.978;11.034;2022-12-11T08:21:18;25.00;;;15.50;;
25057;SDS011;13057;50.978;11.034;2022-12-11T08:23:45;26.50;;;15.43;;
25057;SDS011;13057;50.978;11.034;2022-12-11T08:26:13;31.80;;;17.95;;
25057;SDS011;13057;50.978;11.034;2022-12-11T08:28:41;27.20;;;15.57;;
25057;SDS011;13057;50.978;11.034;2022-12-11T08:31:07;22.52;;;14.50;;
25057;SDS011;13057;50.978;11.034;2022-12-11T08:33:34;23.70;;;14.68;;
25057;SDS011;13057;50.978;11.034;2022-12-11T08:36:02;25.77;;;14.50;;
25057;SDS011;13057;50.978;11.034;2022-12-11T08:38:29;24.20;;;14.32;;
25057;SDS011;13057;50.978;11.034;2022-12-11T08:40:55;23.38;;;14.00;;
25057;SDS011;13057;50.978;11.034;2022-12-11T08:43:21;23.08;;;13.80;;
25057;SDS011;13057;50.978;11.034;2022-12-11T08:45:47;24.33;;;14.23;;
25057;SDS011;13057;50.978;11.034;2022-12-11T08:48:13;24.70;;;14.95;;
25057;SDS011;13057;50.978;11.034;2022-12-11T08:50:39;23.42;;;13.88;;
25057;SDS011;13057;50.978;11.034;2022-12-11T08:53:05;21.67;;;14.50;;
25057;SDS011;13057;50.978;11.034;2022-12-11T08:55:31;22.20;;;14.38;;
25057;SDS011;13057;50.978;11.034;2022-12-11T08:57:57;22.38;;;13.75;;
25057;SDS011;13057;50.978;11.034;2022-12-11T09:00:23;23.65;;;13.93;;
25057;SDS011;13057;50.978;11.034;2022-12-11T09:02:49;22.90;;;14.45;;
25057;SDS011;13057;50.978;11.034;2022-12-11T09:05:15;21.83;;;13.10;;
25057;SDS011;13057;50.978;11.034;2022-12-11T09:07:41;19.27;;;12.27;;
25057;SDS011;13057;50.978;11.034;2022-12-11T09:10:08;22.08;;;13.50;;
25057;SDS011;13057;50.978;11.034;2022-12-11T09:12:34;21.58;;;12.23;;
25057;SDS011;13057;50.978;11.034;2022-12-11T09:15:01;19.98;;;11.23;;
25057;SDS011;13057;50.978;11.034;2022-12-11T09:17:27;18.05;;;10.75;;
25057;SDS011;13057;50.978;11.034;2022-12-11T09:19:53;16.75;;;9.50;;
25057;SDS011;13057;50.978;11.034;2022-12-11T09:22:20;15.38;;;9.07;;
25057;SDS011;13057;50.978;11.034;2022-12-11T09:24:46;16.10;;;8.20;;
25057;SDS011;13057;50.978;11.034;2022-12-11T09:27:12;13.93;;;8.20;;
25057;SDS011;13057;50.978;11.034;2022-12-11T09:29:37;14.70;;;7.85;;
25057;SDS011;13057;50.978;11.034;2022-12-11T09:32:04;13.68;;;8.90;;
25057;SDS011;13057;50.978;11.034;2022-12-11T09:34:30;18.00;;;10.02;;
25057;SDS011;13057;50.978;11.034;2022-12-11T09:36:56;14.38;;;8.80;;
25057;SDS011;13057;50.978;11.034;2022-12-11T09:39:21;14.32;;;8.20;;
25057;SDS011;13057;50.978;11.034;2022-12-11T09:41:54;13.35;;;7.97;;
25057;SDS011;13057;50.978;11.034;2022-12-11T09:44:45;13.48;;;8.02;;
25057;SDS011;13057;50.978;11.034;2022-12-11T09:47:21;13.85;;;8.63;;
25057;SDS011;13057;50.978;11.034;2022-12-11T09:49:57;14.63;;;8.48;;
25057;SDS011;13057;50.978;11.034;2022-12-11T09:52:45;15.75;;;8.75;;
25057;SDS011;13057;50.978;11.034;2022-12-11T09:55:20;12.77;;;7.78;;
25057;SDS011;13057;50.978;11.034;2022-12-11T09:57:56;9.63;;;5.93;;
25057;SDS011;13057;50.978;11.034;2022-12-11T10:00:32;9.65;;;6.65;;
25057;SDS011;13057;50.978;11.034;2022-12-11T10:03:09;12.35;;;6.82;;
25057;SDS011;13057;50.978;11.034;2022-12-11T10:06:04;12.40;;;7.75;;
25057;SDS011;13057;50.978;11.034;2022-12-11T10:08:50;12.45;;;6.88;;
25057;SDS011;13057;50.978;11.034;2022-12-11T10:11:45;10.98;;;6.63;;
25057;SDS011;13057;50.978;11.034;2022-12-11T10:14:34;10.02;;;6.07;;
25057;SDS011;13057;50.978;11.034;2022-12-11T10:17:14;10.18;;;5.97;;
25057;SDS011;13057;50.978;11.034;2022-12-11T10:19:45;10.43;;;6.57;;
25057;SDS011;13057;50.978;11.034;2022-12-11T10:22:21;12.20;;;6.60;;
25057;SDS011;13057;50.978;11.034;2022-12-11T10:24:54;14.65;;;8.32;;
25057;SDS011;13057;50.978;11.034;2022-12-11T10:29:56;14.82;;;7.47;;
25057;SDS011;13057;50.978;11.034;2022-12-11T10:32:35;9.07;;;5.82;;
25057;SDS011;13057;50.978;11.034;2022-12-11T10:35:16;11.23;;;7.45;;
25057;SDS011;13057;50.978;11.034;2022-12-11T10:37:44;11.80;;;7.68;;
25057;SDS011;13057;50.978;11.034;2022-12-11T10:40:11;11.68;;;6.93;;
25057;SDS011;13057;50.978;11.034;2022-12-11T10:42:37;10.73;;;6.75;;
25057;SDS011;13057;50.978;11.034;2022-12-11T10:45:04;13.02;;;7.22;;
25057;SDS011;13057;50.978;11.034;2022-12-11T10:47:30;13.27;;;7.53;;
25057;SDS011;13057;50.978;11.034;2022-12-11T10:49:59;13.23;;;7.85;;
25057;SDS011;13057;50.978;11.034;2022-12-11T10:52:27;18.95;;;12.07;;
25057;SDS011;13057;50.978;11.034;2022-12-11T10:55:05;10.82;;;7.47;;
25057;SDS011;13057;50.978;11.034;2022-12-11T10:57:41;11.75;;;7.63;;
25057;SDS011;13057;50.978;11.034;2022-12-11T11:00:24;15.68;;;8.93;;
25057;SDS011;13057;50.978;11.034;2022-12-11T11:02:56;13.55;;;8.63;;
25057;SDS011;13057;50.978;11.034;2022-12-11T11:05:30;11.73;;;7.68;;
25057;SDS011;13057;50.978;11.034;2022-12-11T11:08:13;14.73;;;9.57;;
25057;SDS011;13057;50.978;11.034;2022-12-11T11:10:51;11.85;;;7.55;;
25057;SDS011;13057;50.978;11.034;2022-12-11T11:13:21;13.63;;;8.32;;
25057;SDS011;13057;50.978;11.034;2022-12-11T11:15:49;14.45;;;8.20;;
25057;SDS011;13057;50.978;11.034;2022-12-11T11:18:25;13.25;;;7.95;;
25057;SDS011;13057;50.978;11.034;2022-12-11T11:20:52;12.40;;;8.35;;
25057;SDS011;13057;50.978;11.034;2022-12-11T11:23:19;11.95;;;7.97;;
25057;SDS011;13057;50.978;11.034;2022-12-11T11:25:50;15.15;;;9.18;;
25057;SDS011;13057;50.978;11.034;2022-12-11T11:28:20;15.00;;;8.25;;
25057;SDS011;13057;50.978;11.034;2022-12-11T11:31:02;12.53;;;8.77;;
25057;SDS011;13057;50.978;11.034;2022-12-11T11:33:30;16.02;;;8.93;;
25057;SDS011;13057;50.978;11.034;2022-12-11T11:35:59;13.55;;;8.93;;
25057;SDS011;13057;50.978;11.034;2022-12-11T11:38:28;15.55;;;9.68;;
25057;SDS011;13057;50.978;11.034;2022-12-11T11:41:02;14.50;;;9.90;;
25057;SDS011;13057;50.978;11.034;2022-12-11T11:43:45;15.07;;;9.85;;
25057;SDS011;13057;50.978;11.034;2022-12-11T11:46:25;13.50;;;8.43;;
25057;SDS011;13057;50.978;11.034;2022-12-11T11:48:59;12.98;;;7.93;;
25057;SDS011;13057;50.978;11.034;2022-12-11T11:51:40;13.43;;;8.30;;
25057;SDS011;13057;50.978;11.034;2022-12-11T11:56:51;14.30;;;8.90;;
25057;SDS011;13057;50.978;11.034;2022-12-11T12:02:14;15.48;;;10.50;;
25057;SDS011;13057;50.978;11.034;2022-12-11T12:04:42;19.83;;;11.93;;
25057;SDS011;13057;50.978;11.034;2022-12-11T12:12:45;16.73;;;10.52;;
25057;SDS011;13057;50.978;11.034;2022-12-11T12:15:28;15.57;;;10.15;;
25057;SDS011;13057;50.978;11.034;2022-12-11T12:20:39;15.05;;;9.38;;
25057;SDS011;13057;50.978;11.034;2022-12-11T12:23:21;15.93;;;9.45;;
25057;SDS011;13057;50.978;11.034;2022-12-11T12:26:05;15.85;;;9.00;;
25057;SDS011;13057;50.978;11.034;2022-12-11T12:34:40;14.15;;;9.10;;
25057;SDS011;13057;50.978;11.034;2022-12-11T12:37:22;15.27;;;9.02;;
25057;SDS011;13057;50.978;11.034;2022-12-11T12:40:09;15.43;;;9.55;;
25057;SDS011;13057;50.978;11.034;2022-12-11T12:42:51;16.20;;;10.07;;
25057;SDS011;13057;50.978;11.034;2022-12-11T12:45:33;17.83;;;11.00;;
25057;SDS011;13057;50.978;11.034;2022-12-11T12:48:08;16.98;;;10.75;;
25057;SDS011;13057;50.978;11.034;2022-12-11T12:50:36;17.10;;;9.52;;
25057;SDS011;13057;50.978;11.034;2022-12-11T12:53:06;15.43;;;9.77;;
25057;SDS011;13057;50.978;11.034;2022-12-11T12:55:38;16.00;;;9.65;;
25057;SDS011;13057;50.978;11.034;2022-12-11T12:58:05;15.25;;;9.68;;
25057;SDS011;13057;50.978;11.034;2022-12-11T13:00:36;19.20;;;9.25;;
25057;SDS011;13057;50.978;11.034;2022-12-11T13:05:43;13.25;;;8.40;;
25057;SDS011;13057;50.978;11.034;2022-12-11T13:08:23;21.15;;;9.07;;
25057;SDS011;13057;50.978;11.034;2022-12-11T13:11:02;14.20;;;8.60;;
25057;SDS011;13057;50.978;11.034;2022-12-11T13:13:36;16.23;;;9.43;;
25057;SDS011;13057;50.978;11.034;2022-12-11T13:16:06;15.55;;;8.88;;
25057;SDS011;13057;50.978;11.034;2022-12-11T13:18:56;13.20;;;7.78;;
25057;SDS011;13057;50.978;11.034;2022-12-11T13:21:25;12.65;;;7.90;;
25057;SDS011;13057;50.978;11.034;2022-12-11T13:23:54;18.83;;;8.27;;
25057;SDS011;13057;50.978;11.034;2022-12-11T13:26:33;12.18;;;8.30;;
25057;SDS011;13057;50.978;11.034;2022-12-11T13:28:59;10.30;;;7.30;;
25057;SDS011;13057;50.978;11.034;2022-12-11T13:31:27;11.90;;;7.63;;
25057;SDS011;13057;50.978;11.034;2022-12-11T13:34:01;12.20;;;7.10;;
25057;SDS011;13057;50.978;11.034;2022-12-11T13:36:48;11.55;;;7.15;;
25057;SDS011;13057;50.978;11.034;2022-12-11T13:39:17;11.27;;;7.32;;
25057;SDS011;13057;50.978;11.034;2022-12-11T13:41:50;12.18;;;7.40;;
25057;SDS011;13057;50.978;11.034;2022-12-11T13:44:21;11.43;;;7.38;;
25057;SDS011;13057;50.978;11.034;2022-12-11T13:49:20;13.32;;;8.18;;
25057;SDS011;13057;50.978;11.034;2022-12-11T13:51:51;13.63;;;8.90;;
25057;SDS011;13057;50.978;11.034;2022-12-11T13:54:20;11.27;;;7.30;;
25057;SDS011;13057;50.978;11.034;2022-12-11T13:56:56;12.88;;;8.40;;
25057;SDS011;13057;50.978;11.034;2022-12-11T13:59:30;12.02;;;7.57;;
25057;SDS011;13057;50.978;11.034;2022-12-11T14:02:05;11.27;;;7.33;;
25057;SDS011;13057;50.978;11.034;2022-12-11T14:04:47;11.70;;;7.10;;
25057;SDS011;13057;50.978;11.034;2022-12-11T14:07:22;10.88;;;7.03;;
25057;SDS011;13057;50.978;11.034;2022-12-11T14:09:55;13.25;;;7.32;;
25057;SDS011;13057;50.978;11.034;2022-12-11T14:12:26;12.48;;;7.40;;
25057;SDS011;13057;50.978;11.034;2022-12-11T14:14:54;16.52;;;7.78;;
25057;SDS011;13057;50.978;11.034;2022-12-11T14:17:24;11.23;;;7.35;;
25057;SDS011;13057;50.978;11.034;2022-12-11T14:19:53;11.60;;;7.38;;
25057;SDS011;13057;50.978;11.034;2022-12-11T14:22:23;12.10;;;7.47;;
25057;SDS011;13057;50.978;11.034;2022-12-11T14:24:51;11.52;;;7.53;;
25057;SDS011;13057;50.978;11.034;2022-12-11T14:27:19;11.50;;;7.18;;
25057;SDS011;13057;50.978;11.034;2022-12-11T14:29:46;11.75;;;7.32;;
25057;SDS011;13057;50.978;11.034;2022-12-11T14:32:17;14.65;;;8.80;;
25057;SDS011;13057;50.978;11.034;2022-12-11T14:35:05;13.63;;;8.80;;
25057;SDS011;13057;50.978;11.034;2022-12-11T14:37:34;11.43;;;7.07;;
25057;SDS011;13057;50.978;11.034;2022-12-11T14:40:02;12.73;;;7.47;;
25057;SDS011;13057;50.978;11.034;2022-12-11T14:42:34;19.63;;;9.25;;
25057;SDS011;13057;50.978;11.034;2022-12-11T14:45:07;13.13;;;7.60;;
25057;SDS011;13057;50.978;11.034;2022-12-11T14:47:44;12.15;;;7.22;;
25057;SDS011;13057;50.978;11.034;2022-12-11T14:50:14;11.00;;;7.22;;
25057;SDS011;13057;50.978;11.034;2022-12-11T14:52:52;10.52;;;6.72;;
25057;SDS011;13057;50.978;11.034;2022-12-11T14:55:24;12.73;;;7.43;;
25057;SDS011;13057;50.978;11.034;2022-12-11T14:57:56;12.30;;;7.68;;
25057;SDS011;13057;50.978;11.034;2022-12-11T15:00:27;24.70;;;15.70;;
25057;SDS011;13057;50.978;11.034;2022-12-11T15:02:59;16.35;;;8.30;;
25057;SDS011;13057;50.978;11.034;2022-12-11T15:05:29;12.80;;;7.75;;
25057;SDS011;13057;50.978;11.034;2022-12-11T15:08:02;12.00;;;7.90;;
25057;SDS011;13057;50.978;11.034;2022-12-11T15:10:33;14.68;;;8.95;;
25057;SDS011;13057;50.978;11.034;2022-12-11T15:13:03;13.55;;;9.00;;
25057;SDS011;13057;50.978;11.034;2022-12-11T15:15:32;18.33;;;10.10;;